sensor_id;sensor_type;location;lat;lon;timestamp;P1;durP1;ratioP1;P2;durP2;ratioP2
21266;SDS011;10791;53.108;18.326;2023-04-01T00:04:53;28.10;;;17.03;;
21266;SDS011;10791;53.108;18.326;2023-04-01T00:09:57;24.53;;;15.57;;
21266;SDS011;10791;53.108;18.326;2023-04-01T00:15:00;25.57;;;16.07;;
21266;SDS011;10791;53.108;18.326;2023-04-01T00:20:05;26.40;;;16.97;;
21266;SDS011;10791;53.108;18.326;2023-04-01T00:25:10;30.90;;;17.37;;
21266;SDS011;10791;53.108;18.326;2023-04-01T00:30:14;30.10;;;17.10;;
21266;SDS011;10791;53.108;18.326;2023-04-01T00:35:17;29.90;;;17.80;;
21266;SDS011;10791;53.108;18.326;2023-04-01T00:40:25;33.17;;;18.13;;
21266;SDS011;10791;53.108;18.326;2023-04-01T00:45:35;29.23;;;17.60;;
21266;SDS011;10791;53.108;18.326;2023-04-01T00:50:42;28.10;;;16.90;;
21266;SDS011;10791;53.108;18.326;2023-04-01T00:55:53;26.43;;;16.63;;
21266;SDS011;10791;53.108;18.326;2023-04-01T01:01:18;28.20;;;16.80;;
21266;SDS011;10791;53.108;18.326;2023-04-01T01:06:34;26.90;;;15.30;;
21266;SDS011;10791;53.108;18.326;2023-04-01T01:12:03;26.93;;;16.43;;
21266;SDS011;10791;53.108;18.326;2023-04-01T01:17:13;27.77;;;16.70;;
21266;SDS011;10791;53.108;18.326;2023-04-01T01:27:39;29.67;;;17.63;;
21266;SDS011;10791;53.108;18.326;2023-04-01T01:38:34;31.37;;;19.23;;
21266;SDS011;10791;53.108;18.326;2023-04-01T01:43:39;35.77;;;21.63;;
21266;SDS011;10791;53.108;18.326;2023-04-01T01:48:45;41.73;;;21.87;;
21266;SDS011;10791;53.108;18.326;2023-04-01T01:53:50;38.87;;;23.80;;
21266;SDS011;10791;53.108;18.326;2023-04-01T01:58:55;39.80;;;24.57;;
21266;SDS011;10791;53.108;18.326;2023-04-01T02:04:05;35.80;;;21.27;;
21266;SDS011;10791;53.108;18.326;2023-04-01T02:09:09;31.53;;;19.90;;
21266;SDS011;10791;53.108;18.326;2023-04-01T02:14:14;32.63;;;19.30;;
21266;SDS011;10791;53.108;18.326;2023-04-01T02:19:21;29.20;;;16.90;;
21266;SDS011;10791;53.108;18.326;2023-04-01T02:24:28;28.10;;;15.77;;
21266;SDS011;10791;53.108;18.326;2023-04-01T02:29:35;23.00;;;14.37;;
21266;SDS011;10791;53.108;18.326;2023-04-01T02:34:39;18.93;;;12.90;;
21266;SDS011;10791;53.108;18.326;2023-04-01T02:39:43;20.47;;;11.73;;
21266;SDS011;10791;53.108;18.326;2023-04-01T02:44:46;18.83;;;11.83;;
21266;SDS011;10791;53.108;18.326;2023-04-01T02:49:50;20.40;;;11.97;;
21266;SDS011;10791;53.108;18.326;2023-04-01T02:54:53;19.73;;;12.50;;
21266;SDS011;10791;53.108;18.326;2023-04-01T02:59:57;19.83;;;13.40;;
21266;SDS011;10791;53.108;18.326;2023-04-01T03:05:00;21.43;;;12.30;;
21266;SDS011;10791;53.108;18.326;2023-04-01T03:10:04;20.37;;;11.30;;
21266;SDS011;10791;53.108;18.326;2023-04-01T03:15:12;22.03;;;11.57;;
21266;SDS011;10791;53.108;18.326;2023-04-01T03:20:17;18.30;;;10.73;;
21266;SDS011;10791;53.108;18.326;2023-04-01T03:25:21;16.10;;;9.37;;
21266;SDS011;10791;53.108;18.326;2023-04-01T03:30:24;16.60;;;9.77;;
21266;SDS011;10791;53.108;18.326;2023-04-01T03:35:28;16.47;;;9.20;;
21266;SDS011;10791;53.108;18.326;2023-04-01T03:40:31;16.07;;;8.93;;
21266;SDS011;10791;53.108;18.326;2023-04-01T03:45:36;14.50;;;8.20;;
21266;SDS011;10791;53.108;18.326;2023-04-01T03:50:49;14.10;;;7.30;;
21266;SDS011;10791;53.108;18.326;2023-04-01T03:55:53;17.73;;;8.37;;
21266;SDS011;10791;53.108;18.326;2023-04-01T04:00:56;18.70;;;9.37;;
21266;SDS011;10791;53.108;18.326;2023-04-01T04:05:59;22.07;;;9.97;;
21266;SDS011;10791;53.108;18.326;2023-04-01T04:11:02;22.97;;;10.37;;
21266;SDS011;10791;53.108;18.326;2023-04-01T04:16:06;20.03;;;9.50;;
21266;SDS011;10791;53.108;18.326;2023-04-01T04:21:14;21.63;;;10.97;;
21266;SDS011;10791;53.108;18.326;2023-04-01T04:26:17;25.40;;;10.90;;
21266;SDS011;10791;53.108;18.326;2023-04-01T04:31:21;29.23;;;13.50;;
21266;SDS011;10791;53.108;18.326;2023-04-01T04:36:26;27.20;;;13.77;;
21266;SDS011;10791;53.108;18.326;2023-04-01T04:41:30;32.17;;;14.10;;
21266;SDS011;10791;53.108;18.326;2023-04-01T04:46:33;22.97;;;11.70;;
21266;SDS011;10791;53.108;18.326;2023-04-01T04:51:38;32.63;;;13.77;;
21266;SDS011;10791;53.108;18.326;2023-04-01T04:56:42;27.10;;;11.70;;
21266;SDS011;10791;53.108;18.326;2023-04-01T05:01:45;27.60;;;12.73;;
21266;SDS011;10791;53.108;18.326;2023-04-01T05:06:48;28.80;;;12.97;;
21266;SDS011;10791;53.108;18.326;2023-04-01T05:11:52;24.57;;;12.13;;
21266;SDS011;10791;53.108;18.326;2023-04-01T05:16:56;28.60;;;12.87;;
21266;SDS011;10791;53.108;18.326;2023-04-01T05:21:59;29.17;;;13.47;;
21266;SDS011;10791;53.108;18.326;2023-04-01T05:27:03;28.50;;;13.17;;
21266;SDS011;10791;53.108;18.326;2023-04-01T05:32:06;22.93;;;11.53;;
21266;SDS011;10791;53.108;18.326;2023-04-01T05:37:10;30.67;;;13.43;;
21266;SDS011;10791;53.108;18.326;2023-04-01T05:42:13;22.80;;;12.07;;
21266;SDS011;10791;53.108;18.326;2023-04-01T05:47:18;25.67;;;12.37;;
21266;SDS011;10791;53.108;18.326;2023-04-01T05:52:21;24.50;;;13.00;;
21266;SDS011;10791;53.108;18.326;2023-04-01T05:57:24;26.97;;;12.50;;
21266;SDS011;10791;53.108;18.326;2023-04-01T06:02:28;30.20;;;13.77;;
21266;SDS011;10791;53.108;18.326;2023-04-01T06:07:32;29.73;;;12.93;;
21266;SDS011;10791;53.108;18.326;2023-04-01T06:12:47;27.47;;;12.87;;
21266;SDS011;10791;53.108;18.326;2023-04-01T06:18:40;24.03;;;11.80;;
21266;SDS011;10791;53.108;18.326;2023-04-01T06:24:01;20.57;;;11.83;;
21266;SDS011;10791;53.108;18.326;2023-04-01T06:34:52;22.30;;;12.53;;
21266;SDS011;10791;53.108;18.326;2023-04-01T06:51:05;20.97;;;12.07;;
21266;SDS011;10791;53.108;18.326;2023-04-01T06:56:20;22.47;;;12.90;;
21266;SDS011;10791;53.108;18.326;2023-04-01T07:01:47;23.27;;;13.13;;
21266;SDS011;10791;53.108;18.326;2023-04-01T07:06:59;22.33;;;12.63;;
21266;SDS011;10791;53.108;18.326;2023-04-01T07:12:15;23.60;;;13.00;;
21266;SDS011;10791;53.108;18.326;2023-04-01T07:17:27;22.27;;;11.57;;
21266;SDS011;10791;53.108;18.326;2023-04-01T07:22:43;20.67;;;12.63;;
21266;SDS011;10791;53.108;18.326;2023-04-01T07:28:01;21.73;;;12.60;;
21266;SDS011;10791;53.108;18.326;2023-04-01T07:33:11;24.10;;;13.67;;
21266;SDS011;10791;53.108;18.326;2023-04-01T07:49:14;27.23;;;14.87;;
21266;SDS011;10791;53.108;18.326;2023-04-01T07:54:22;22.67;;;13.43;;
21266;SDS011;10791;53.108;18.326;2023-04-01T08:10:41;20.40;;;12.07;;
21266;SDS011;10791;53.108;18.326;2023-04-01T08:15:57;23.37;;;12.10;;
21266;SDS011;10791;53.108;18.326;2023-04-01T08:21:35;17.60;;;10.50;;
21266;SDS011;10791;53.108;18.326;2023-04-01T08:26:51;17.50;;;11.13;;
21266;SDS011;10791;53.108;18.326;2023-04-01T08:32:15;17.57;;;11.57;;
21266;SDS011;10791;53.108;18.326;2023-04-01T08:37:31;21.90;;;11.33;;
21266;SDS011;10791;53.108;18.326;2023-04-01T08:49:03;18.30;;;10.90;;
21266;SDS011;10791;53.108;18.326;2023-04-01T08:54:00;19.90;;;9.77;;
21266;SDS011;10791;53.108;18.326;2023-04-01T08:59:37;20.67;;;11.07;;
21266;SDS011;10791;53.108;18.326;2023-04-01T09:21:19;19.53;;;10.57;;
21266;SDS011;10791;53.108;18.326;2023-04-01T09:27:04;15.97;;;10.13;;
21266;SDS011;10791;53.108;18.326;2023-04-01T09:32:48;15.27;;;8.60;;
21266;SDS011;10791;53.108;18.326;2023-04-01T09:38:00;18.07;;;10.93;;
21266;SDS011;10791;53.108;18.326;2023-04-01T09:43:28;16.83;;;9.40;;
21266;SDS011;10791;53.108;18.326;2023-04-01T10:37:08;18.20;;;11.97;;
21266;SDS011;10791;53.108;18.326;2023-04-01T10:42:47;17.77;;;11.60;;
21266;SDS011;10791;53.108;18.326;2023-04-01T11:32:19;18.27;;;12.50;;
21266;SDS011;10791;53.108;18.326;2023-04-01T11:42:49;18.33;;;12.43;;
21266;SDS011;10791;53.108;18.326;2023-04-01T13:22:16;13.53;;;10.10;;
21266;SDS011;10791;53.108;18.326;2023-04-01T13:27:30;10.83;;;8.90;;
21266;SDS011;10791;53.108;18.326;2023-04-01T13:32:50;12.30;;;9.40;;
21266;SDS011;10791;53.108;18.326;2023-04-01T14:15:56;11.43;;;7.83;;
21266;SDS011;10791;53.108;18.326;2023-04-01T14:27:03;9.83;;;7.63;;
21266;SDS011;10791;53.108;18.326;2023-04-01T14:32:39;13.93;;;9.77;;
21266;SDS011;10791;53.108;18.326;2023-04-01T14:44:01;11.13;;;7.97;;
21266;SDS011;10791;53.108;18.326;2023-04-01T14:49:20;11.47;;;9.30;;
21266;SDS011;10791;53.108;18.326;2023-04-01T14:54:44;12.83;;;9.23;;
21266;SDS011;10791;53.108;18.326;2023-04-01T14:59:51;9.47;;;7.07;;
21266;SDS011;10791;53.108;18.326;2023-04-01T15:16:31;10.53;;;6.87;;
21266;SDS011;10791;53.108;18.326;2023-04-01T15:27:20;8.63;;;6.53;;
21266;SDS011;10791;53.108;18.326;2023-04-01T15:43:53;10.13;;;7.03;;
21266;SDS011;10791;53.108;18.326;2023-04-01T15:49:11;11.13;;;8.37;;
21266;SDS011;10791;53.108;18.326;2023-04-01T16:00:26;14.40;;;8.83;;
21266;SDS011;10791;53.108;18.326;2023-04-01T16:05:34;11.03;;;7.83;;
21266;SDS011;10791;53.108;18.326;2023-04-01T16:21:37;14.30;;;9.17;;
21266;SDS011;10791;53.108;18.326;2023-04-01T16:37:48;14.93;;;10.03;;
21266;SDS011;10791;53.108;18.326;2023-04-01T16:54:26;15.03;;;9.73;;
21266;SDS011;10791;53.108;18.326;2023-04-01T16:59:54;9.43;;;6.70;;
21266;SDS011;10791;53.108;18.326;2023-04-01T17:05:11;9.33;;;6.90;;
21266;SDS011;10791;53.108;18.326;2023-04-01T17:15:53;6.57;;;4.47;;
21266;SDS011;10791;53.108;18.326;2023-04-01T17:21:05;5.30;;;4.40;;
21266;SDS011;10791;53.108;18.326;2023-04-01T17:37:41;7.57;;;5.17;;
21266;SDS011;10791;53.108;18.326;2023-04-01T17:43:12;7.40;;;5.13;;
21266;SDS011;10791;53.108;18.326;2023-04-01T17:54:11;6.33;;;3.70;;
21266;SDS011;10791;53.108;18.326;2023-04-01T17:59:40;8.23;;;4.80;;
21266;SDS011;10791;53.108;18.326;2023-04-01T18:04:59;7.20;;;4.70;;
21266;SDS011;10791;53.108;18.326;2023-04-01T18:27:58;7.90;;;4.80;;
21266;SDS011;10791;53.108;18.326;2023-04-01T18:32:52;8.93;;;5.93;;
21266;SDS011;10791;53.108;18.326;2023-04-01T18:43:48;6.43;;;4.00;;
21266;SDS011;10791;53.108;18.326;2023-04-01T18:54:32;6.53;;;4.10;;
21266;SDS011;10791;53.108;18.326;2023-04-01T19:10:31;10.13;;;5.03;;
21266;SDS011;10791;53.108;18.326;2023-04-01T19:15:55;7.80;;;4.67;;
21266;SDS011;10791;53.108;18.326;2023-04-01T19:21:43;6.13;;;4.47;;
21266;SDS011;10791;53.108;18.326;2023-04-01T19:32:51;10.00;;;5.93;;
21266;SDS011;10791;53.108;18.326;2023-04-01T19:38:31;9.43;;;6.00;;
21266;SDS011;10791;53.108;18.326;2023-04-01T19:44:09;9.47;;;6.97;;
21266;SDS011;10791;53.108;18.326;2023-04-01T20:00:31;9.57;;;6.50;;
21266;SDS011;10791;53.108;18.326;2023-04-01T20:06:18;11.67;;;5.83;;
21266;SDS011;10791;53.108;18.326;2023-04-01T20:43:57;10.80;;;4.30;;
21266;SDS011;10791;53.108;18.326;2023-04-01T20:49:29;7.97;;;4.70;;
21266;SDS011;10791;53.108;18.326;2023-04-01T20:54:46;10.50;;;5.40;;
21266;SDS011;10791;53.108;18.326;2023-04-01T21:11:03;11.40;;;5.07;;
21266;SDS011;10791;53.108;18.326;2023-04-01T21:21:56;10.03;;;5.90;;
21266;SDS011;10791;53.108;18.326;2023-04-01T21:33:18;11.67;;;6.60;;
21266;SDS011;10791;53.108;18.326;2023-04-01T21:38:21;11.47;;;6.67;;
21266;SDS011;10791;53.108;18.326;2023-04-01T21:49:24;13.17;;;6.47;;
21266;SDS011;10791;53.108;18.326;2023-04-01T22:16:39;13.60;;;6.77;;
21266;SDS011;10791;53.108;18.326;2023-04-01T22:33:08;11.20;;;5.90;;
21266;SDS011;10791;53.108;18.326;2023-04-01T22:44:00;7.90;;;4.93;;
21266;SDS011;10791;53.108;18.326;2023-04-01T22:54:14;4.50;;;3.07;;
21266;SDS011;10791;53.108;18.326;2023-04-01T23:04:37;6.27;;;3.30;;
21266;SDS011;10791;53.108;18.326;2023-04-01T23:09:44;7.13;;;3.40;;
21266;SDS011;10791;53.108;18.326;2023-04-01T23:14:51;5.70;;;3.40;;
21266;SDS011;10791;53.108;18.326;2023-04-01T23:36:36;6.00;;;3.20;;
21266;SDS011;10791;53.108;18.326;2023-04-01T23:41:25;5.47;;;2.83;;
21266;SDS011;10791;53.108;18.326;2023-04-01T23:46:31;4.43;;;2.40;;
21266;SDS011;10791;53.108;18.326;2023-04-01T23:51:38;7.00;;;2.73;;
21266;SDS011;10791;53.108;18.326;2023-04-01T23:56:52;5.10;;;3.03;;
